Terminal Aerodrome Forecast
Issued by NWS Twin Cities, MN

Home | Current Version | Previous Version | Graphics & Text | Print | Product List | Glossary On
Versions: 1 2 3 4 5 6 7 8 9 10 11 12 13 14 15 16 17 18 19
000
FTUS43 KMPX 261139
TAFEAU
TAF
KEAU 261139Z 2612/2712 17008KT 1 1/2SM -SN BR VV012
      TEMPO 2612/2615 1/2SM SN FZFG VV007
     FM261500 17008KT 6SM -FZDZSN BR OVC008
     FM261800 22008KT P6SM OVC010
     FM262100 29005KT P6SM OVC020
     FM270600 34004KT P6SM SCT020 BKN150=

USA.gov is the U.S. government's official web portal to all federal, state and local government web resources and services.